Nizhyn, Ukraine
Current Conditions -  °F | °C
As of 4:30 AM on Wednesday 26 Nov 2014 (Local Time) from UKBB Reporting Station
Light Snow Light Snow  
Wind Chill: 15°   Ceiling: 1600
Heat Index: 23°   Visibility: 6mi
Dew Point: 19°   Wind: 7mph
Humidity: 86%   Direction: 60°ENE
Pressure: 30.45"   Gusts: NA
Location:  51.05°N, 31.88°E
Report Text: UKBB 260130Z 06003MPS 9999 -SN OVC016 M05/M07 Q1031 88810550 NOSIG
Loading
Personal Weather Stations






























Interactive Weather Map New forecast layout! Learn more

10-Day Weather Forecast

Advertisements
Track Severe Weather on mobile